Veuillez saisir l'adresse e-mail associée à votre compte d'utilisateur. Votre identifiant vous sera envoyé à cette adresse.

METAR TAF

[Source: ADDS]
METAR
LFCR 022130Z AUTO 28009KT 9999 FEW019 BKN076 15/12 Q1021 NOSIG =
LFCR 021700Z 0218/0318 30013KT 9999 BKN040 TEMPO 0222/0301 30006KT BECMG 0304/0306 CAVOK LFBA 022130Z AUTO 26005KT 9999 FEW043 SCT049 OVC092 18/13 Q1021 =
LFBA 021400Z 0215/0224 29007KT 9999 BKN045 LFSL 022130Z AUTO VRB03KT CAVOK 15/11 Q1021 =
LFSL 021400Z 0215/0224 31007KT CAVOK LFLW 022130Z AUTO 28003KT 250V310 9999 FEW025 13/11 Q1021 =
LFLW 021400Z 0215/0224 31008KT 9999 BKN035 TEMPO 0218/0221 CAVOK
TAF
LFCR 021700Z 0218/0318 30013KT 9999 BKN040 TEMPO 0222/0301 30006KT BECMG 0304/0306 CAVOK =
LFBA 021400Z 0215/0224 29007KT 9999 BKN045 =
LFSL 021400Z 0215/0224 31007KT CAVOK =
LFLW 021400Z 0215/0224 31008KT 9999 BKN035 TEMPO 0218/0221 CAVOK =
SR / SS: 04:14 / 19:41 UTC (LFCC 2020-07-02)